WetterOnline ( https://www.wetteronline.de )

Wetter aktuell Kappeln

Aktuelles Wetter: Schönhagen (Ostseebad) (2m)

6-stündlich | Neueste Meldungen
Ortszeit Temperatur Wetter
Di, 22.10. 2:00 10.7° C wolkenlos
Mo, 21.10. 20:00 12.7° C bewölkt
Mo, 21.10. 14:00 12.6° C bedeckt
Mo, 21.10. 8:00 11.8° C leichter Regen
Mo, 21.10. 2:00 11.5° C bedeckt
So, 20.10. 20:00 11.8° C wolkig
So, 20.10. 14:00 13.0° C bewölkt
So, 20.10. 8:00 10.1° C wolkig
Ortszeit Temperatur Wetter
Di, 22.10. 3:00 10.3° C wolkenlos
Di, 22.10. 2:30 10.8° C wolkenlos
Di, 22.10. 2:20 10.8° C wolkenlos
Di, 22.10. 2:10 11.0° C fast wolkenlos
Di, 22.10. 2:00 10.7° C wolkenlos
Di, 22.10. 1:40 10.8° C wolkenlos
Di, 22.10. 1:30 10.8° C wolkenlos
Di, 22.10. 1:00 11.0° C fast wolkenlos
Di, 22.10. 0:30 10.3° C Nebel
Di, 22.10. 0:00 9.9° C Nebel
Mo, 21.10. 23:30 10.5° C Nebel
Ortszeit Relative Feuchte Sichtweite
Di, 22.10. 2:00 95% 6 km
Mo, 21.10. 20:00 97% 3.2 km
Mo, 21.10. 14:00 92% 7 km
Mo, 21.10. 8:00 91% 19 km
Mo, 21.10. 2:00 93% 45 km
So, 20.10. 20:00 95% 9 km
So, 20.10. 14:00 88% 9 km
So, 20.10. 8:00 96% 4.4 km
Ortszeit Relative Feuchte Sichtweite
Di, 22.10. 3:00 93% 15 km
Di, 22.10. 2:30 92% 15 km
Di, 22.10. 2:20 92% -
Di, 22.10. 2:10 92% -
Di, 22.10. 2:00 95% 6 km
Di, 22.10. 1:40 95% -
Di, 22.10. 1:30 96% 9 km
Di, 22.10. 1:00 98% 3.9 km
Di, 22.10. 0:30 98% 0.5 km
Di, 22.10. 0:00 99% 100 m
Mo, 21.10. 23:30 99% 0.5 km
Ortszeit Niederschlagsmenge Niederschlagsart
Di, 22.10. 2:00 0.1 l/m2 in 6 Std. -
Mo, 21.10. 20:00 1 l/m2 in 12 Std. -
Mo, 21.10. 14:00 1 l/m2 in 6 Std. Regen
Mo, 21.10. 8:00 1 l/m2 in 12 Std. Regen
Mo, 21.10. 2:00 0.1 l/m2 in 6 Std. Regen
So, 20.10. 20:00 0.0 l/m2 in 12 Std. -
So, 20.10. 14:00 0.0 l/m2 in 6 Std. -
So, 20.10. 8:00 0.1 l/m2 in 12 Std. -
Ortszeit Niederschlagsmenge Niederschlagsart
Di, 22.10. 3:00 0.0 l/m2 in 1 Std. -
Di, 22.10. 2:30 0.0 l/m2 in 1 Std. -
Di, 22.10. 2:20 keine Meldung -
Di, 22.10. 2:10 keine Meldung -
Di, 22.10. 2:00 0.0 l/m2 in 1 Std. -
Di, 22.10. 1:40 keine Meldung -
Di, 22.10. 1:30 0.0 l/m2 in 1 Std. -
Di, 22.10. 1:00 0.0 l/m2 in 1 Std. -
Di, 22.10. 0:30 0.0 l/m2 in 1 Std. -
Di, 22.10. 0:00 0.0 l/m2 in 1 Std. -
Mo, 21.10. 23:30 0.0 l/m2 in 1 Std. -
Ortszeit Stärke Spitze Richtung
km/h Bft. km/h Grad Sektor
Di, 22.10. 2:00 14 3 18 220° SW
Mo, 21.10. 20:00 9 2 33 190° S
Mo, 21.10. 14:00 22 4 40 100° O
Mo, 21.10. 8:00 29 5 36 80° O
Mo, 21.10. 2:00 11 2 14 70° O
So, 20.10. 20:00 7 2 11 160° S
So, 20.10. 14:00 4 1 22 280° W
So, 20.10. 8:00 11 2 18 210° SW
Ortszeit Stärke Spitze Richtung
km/h Bft. km/h Grad Sektor
Di, 22.10. 3:00 11 2 22 210° SW
Di, 22.10. 2:30 14 3 22 210° SW
Di, 22.10. 2:20 14 3 - 210° SW
Di, 22.10. 2:10 15 3 - 210° SW
Di, 22.10. 2:00 14 3 18 220° SW
Di, 22.10. 1:40 9 2 - 210° SW
Di, 22.10. 1:30 9 2 15 210° SW
Di, 22.10. 1:00 11 2 11 220° SW
Di, 22.10. 0:30 7 2 7 210° SW
Di, 22.10. 0:00 6 1 9 240° SW
Mo, 21.10. 23:30 7 2 11 210° SW
Ortszeit Untergrenze Bedeckung Gattung
total tief tief mittel hoch
Di, 22.10. 2:00 - 0/8 0/8 - - -
Mo, 21.10. 20:00 30 m 7/8 7/8 - - -
Mo, 21.10. 14:00 240 m 8/8 8/8 - - -
Mo, 21.10. 8:00 270 m 7/8 7/8 - - -
Mo, 21.10. 2:00 2700 m 8/8 8/8 - - -
So, 20.10. 20:00 2700 m 5/8 5/8 - - -
So, 20.10. 14:00 3300 m 7/8 7/8 - - -
So, 20.10. 8:00 120 m 7/8 3/8 - - -
Ortszeit Bedeckungsgrad in Achtel und Wolkenuntergrenze
Di, 22.10. 3:00 keine Wolken
Di, 22.10. 2:30 keine Wolken
Di, 22.10. 2:20 keine Wolken
Di, 22.10. 2:10 1(810m)
Di, 22.10. 2:00 keine Wolken
Di, 22.10. 1:40 keine Wolken
Di, 22.10. 1:30 keine Wolken
Di, 22.10. 1:00 1(1320m)
Di, 22.10. 0:30 5(1440m) 5(1500m)
Di, 22.10. 0:00 keine Wolken
Mo, 21.10. 23:30 1(1230m)
Ortszeit Luftdruck NN (hPa) Tendenz (hPa in 3 Std.)
Di, 22.10. 2:00 1020 + 0,8
Mo, 21.10. 20:00 1019 + 1,4
Mo, 21.10. 14:00 1017 - 0,1
Mo, 21.10. 8:00 1016 + 0,8
Mo, 21.10. 2:00 1015 + 0,8
So, 20.10. 20:00 1013 + 1,8
So, 20.10. 14:00 1011 + 1,2
So, 20.10. 8:00 1008 + 1,0
Ortszeit Luftdruck NN (hPa) Tendenz (hPa in 3 Std.)
Di, 22.10. 3:00 1020 + 0,4
Di, 22.10. 2:30 1020 + 0,5
Di, 22.10. 2:20 1020 keine Meldung
Di, 22.10. 2:10 1020 keine Meldung
Di, 22.10. 2:00 1020 + 0,8
Di, 22.10. 1:40 1020 keine Meldung
Di, 22.10. 1:30 1020 + 0,6
Di, 22.10. 1:00 1020 + 0,6
Di, 22.10. 0:30 1019 + 0,6
Di, 22.10. 0:00 1019 + 0,7
Mo, 21.10. 23:30 1019 + 0,8
Ortszeit Schneehöhe (cm)
Di, 22.10. 2:00 0
Mo, 21.10. 20:00 0
Mo, 21.10. 14:00 0
Mo, 21.10. 8:00 0
Mo, 21.10. 2:00 0
So, 20.10. 20:00 0
So, 20.10. 14:00 0
So, 20.10. 8:00 0
Ortszeit Schneehöhe (cm)
Di, 22.10. 3:00 0
Di, 22.10. 2:30 0
Di, 22.10. 2:20 0
Di, 22.10. 2:10 0
Di, 22.10. 2:00 0
Di, 22.10. 1:40 0
Di, 22.10. 1:30 0
Di, 22.10. 1:00 0
Di, 22.10. 0:30 0
Di, 22.10. 0:00 0
Mo, 21.10. 23:30 0
Link zu dieser Seite / Seite empfehlen

Das Wetter in ...